Time;durP1;ratioP1;P1;durP2;ratioP2;P2;SDS_P1;SDS_P2;PMS_P1;PMS_P2;Temp;Humidity;BMP_temperature;BMP_pressure;BME280_temperature;BME280_humidity;BME280_pressure;Samples;Min_cycle;Max_cycle;Signal;HPM_P1;HPM_P2
2023/12/23 00:01:01;;;;;;;0.57;0.35;;;9.60;99.90;;;;;;5055828;28;20478;-72
2023/12/23 00:03:26;;;;;;;1.35;0.30;;;9.50;99.90;;;;;;5062983;28;20409;-72
2023/12/23 00:05:53;;;;;;;0.40;0.32;;;9.50;99.90;;;;;;5060950;28;20054;-70
2023/12/23 00:08:18;;;;;;;3.10;0.57;;;9.50;99.90;;;;;;5055596;28;20048;-71
2023/12/23 00:10:44;;;;;;;1.65;0.35;;;9.40;99.90;;;;;;5058224;28;20111;-72
2023/12/23 00:13:10;;;;;;;0.10;0.10;;;9.40;99.90;;;;;;5057574;28;20051;-71
2023/12/23 00:15:35;;;;;;;0.30;0.30;;;9.40;99.90;;;;;;5059396;28;20033;-71
2023/12/23 00:18:01;;;;;;;1.70;0.60;;;9.40;99.90;;;;;;5060480;28;20040;-70
2023/12/23 00:20:27;;;;;;;1.67;0.30;;;9.40;99.90;;;;;;5058228;28;20107;-71
2023/12/23 00:22:55;;;;;;;0.35;0.35;;;9.40;99.90;;;;;;5060790;28;20043;-71
2023/12/23 00:25:21;;;;;;;0.20;0.20;;;9.40;99.90;;;;;;5058824;28;20456;-72
2023/12/23 00:27:47;;;;;;;0.68;0.68;;;9.30;99.90;;;;;;5052170;28;20031;-71
2023/12/23 00:30:13;;;;;;;1.42;0.80;;;9.30;99.90;;;;;;5059836;28;20053;-71
2023/12/23 00:32:40;;;;;;;0.13;0.13;;;9.20;99.90;;;;;;5057348;28;20040;-72
2023/12/23 00:35:07;;;;;;;2.00;0.98;;;9.20;99.90;;;;;;5059066;28;20097;-71
2023/12/23 00:37:33;;;;;;;1.17;0.52;;;9.20;99.90;;;;;;5060144;28;20036;-71
2023/12/23 00:39:59;;;;;;;0.10;0.10;;;9.10;99.90;;;;;;5056447;28;20039;-71
2023/12/23 00:42:24;;;;;;;0.25;0.20;;;9.10;99.90;;;;;;5060202;28;20089;-71
2023/12/23 00:44:50;;;;;;;0.17;0.10;;;9.10;99.90;;;;;;5064508;28;20471;-71
2023/12/23 00:47:15;;;;;;;0.40;0.30;;;9.10;99.90;;;;;;5060087;28;21456;-71
2023/12/23 00:49:41;;;;;;;3.80;0.22;;;9.10;99.90;;;;;;5064593;28;20464;-71
2023/12/23 00:52:07;;;;;;;0.50;0.20;;;9.10;99.90;;;;;;5060764;28;20531;-71
2023/12/23 00:54:32;;;;;;;0.57;0.40;;;9.10;99.90;;;;;;5059024;28;20070;-71
2023/12/23 00:56:58;;;;;;;6.20;0.55;;;9.10;99.90;;;;;;5062560;28;20533;-72
2023/12/23 00:59:23;;;;;;;1.88;0.38;;;9.00;99.90;;;;;;5060283;28;20028;-71
2023/12/23 01:01:49;;;;;;;2.55;1.38;;;8.90;99.90;;;;;;5056997;28;20035;-71
2023/12/23 01:04:15;;;;;;;3.67;0.52;;;8.80;99.90;;;;;;5060387;28;20036;-71
2023/12/23 01:06:40;;;;;;;1.33;0.43;;;8.80;99.90;;;;;;5057124;28;20332;-71
2023/12/23 01:09:06;;;;;;;0.52;0.30;;;8.80;99.90;;;;;;5059428;28;20037;-72
2023/12/23 01:11:32;;;;;;;1.23;0.38;;;8.80;99.90;;;;;;5058269;28;20032;-72
2023/12/23 01:13:57;;;;;;;0.88;0.30;;;8.80;99.90;;;;;;5054449;28;20123;-71
2023/12/23 01:16:23;;;;;;;5.25;1.02;;;8.80;99.90;;;;;;5063449;28;20036;-72
2023/12/23 01:18:48;;;;;;;2.70;0.50;;;8.80;99.90;;;;;;5061344;28;20044;-71
2023/12/23 01:21:15;;;;;;;3.60;0.20;;;8.70;99.90;;;;;;5057584;28;20043;-72
2023/12/23 01:23:41;;;;;;;1.35;0.30;;;8.80;99.90;;;;;;5061339;28;20043;-73
2023/12/23 01:26:08;;;;;;;0.20;0.20;;;8.70;99.90;;;;;;5055671;28;20039;-72
2023/12/23 01:28:33;;;;;;;0.20;0.20;;;8.90;99.90;;;;;;5059547;28;20421;-72
2023/12/23 01:30:59;;;;;;;1.65;0.32;;;8.90;99.90;;;;;;5056794;28;20090;-73
2023/12/23 01:33:24;;;;;;;8.15;0.80;;;8.90;99.90;;;;;;5057982;28;20032;-72
2023/12/23 01:35:50;;;;;;;0.30;0.28;;;9.00;99.90;;;;;;5059276;28;20123;-72
2023/12/23 01:38:16;;;;;;;4.68;0.35;;;9.00;99.90;;;;;;5064383;28;20052;-72
2023/12/23 01:40:41;;;;;;;0.20;0.20;;;9.00;99.90;;;;;;5078314;28;20016;-72
2023/12/23 01:43:07;;;;;;;5.10;0.35;;;9.10;99.90;;;;;;5072302;28;20036;-72
2023/12/23 01:45:33;;;;;;;1.00;0.28;;;9.10;99.90;;;;;;5061697;28;20520;-72
2023/12/23 01:48:00;;;;;;;1.98;0.50;;;9.10;99.90;;;;;;5056628;28;20048;-72
2023/12/23 01:50:27;;;;;;;0.45;0.30;;;9.10;99.90;;;;;;5061409;28;20114;-71
2023/12/23 01:52:56;;;;;;;0.80;0.15;;;9.20;99.90;;;;;;5060851;28;20072;-72
2023/12/23 01:55:26;;;;;;;0.32;0.32;;;9.20;99.90;;;;;;5057544;28;20041;-71
2023/12/23 01:57:53;;;;;;;2.72;0.90;;;9.30;99.90;;;;;;5059127;28;20044;-71
2023/12/23 02:00:19;;;;;;;2.90;0.93;;;9.40;99.90;;;;;;5057665;28;20198;-72
2023/12/23 02:02:47;;;;;;;13.48;0.65;;;9.40;99.90;;;;;;5059116;28;20081;-71
2023/12/23 02:05:13;;;;;;;1.38;0.45;;;9.40;99.90;;;;;;5045324;28;20060;-72
2023/12/23 02:07:39;;;;;;;0.65;0.60;;;9.40;99.90;;;;;;5053987;28;20736;-72
2023/12/23 02:10:06;;;;;;;0.00;0.00;;;9.40;99.90;;;;;;5057556;28;20535;-72
2023/12/23 02:12:36;;;;;;;1.75;0.20;;;9.50;99.90;;;;;;5059038;28;20565;-73
2023/12/23 02:15:09;;;;;;;0.82;0.38;;;9.50;99.90;;;;;;5053708;28;20064;-73
2023/12/23 02:17:35;;;;;;;6.35;0.55;;;9.60;99.90;;;;;;5059312;28;20021;-72
2023/12/23 02:20:01;;;;;;;0.40;0.40;;;9.60;99.90;;;;;;5058351;28;20039;-72
2023/12/23 02:22:26;;;;;;;0.98;0.55;;;9.60;99.90;;;;;;5059175;28;20033;-71
2023/12/23 02:24:52;;;;;;;1.63;0.63;;;9.60;99.90;;;;;;5064150;28;20032;-70
2023/12/23 02:27:22;;;;;;;0.20;0.20;;;9.60;99.90;;;;;;5057150;28;20416;-72
2023/12/23 02:29:50;;;;;;;0.80;0.80;;;9.60;99.90;;;;;;5061288;28;20066;-71
2023/12/23 02:32:17;;;;;;;1.08;0.68;;;9.60;99.90;;;;;;5057919;28;20063;-71
2023/12/23 02:34:43;;;;;;;0.63;0.20;;;9.60;99.90;;;;;;5056692;28;20039;-72
2023/12/23 02:37:09;;;;;;;0.20;0.20;;;9.60;99.90;;;;;;5059928;28;20028;-71
2023/12/23 02:39:34;;;;;;;1.05;0.57;;;9.60;99.90;;;;;;5060420;28;20068;-71
2023/12/23 02:42:00;;;;;;;2.03;0.88;;;9.60;99.90;;;;;;5057494;28;20039;-72
2023/12/23 02:44:26;;;;;;;3.75;0.30;;;9.50;99.90;;;;;;5061401;28;20037;-71
2023/12/23 02:46:51;;;;;;;2.50;0.60;;;9.50;99.90;;;;;;5061774;28;20038;-72
2023/12/23 02:49:17;;;;;;;0.65;0.20;;;9.40;99.90;;;;;;5059538;28;20032;-72
2023/12/23 02:51:42;;;;;;;0.25;0.20;;;9.40;99.90;;;;;;5061151;28;20131;-72
2023/12/23 02:54:08;;;;;;;0.20;0.20;;;9.50;99.90;;;;;;5056214;28;20056;-72
2023/12/23 02:56:34;;;;;;;2.50;0.10;;;9.60;99.90;;;;;;5058503;28;20565;-72
2023/12/23 02:58:59;;;;;;;0.85;0.63;;;9.70;99.90;;;;;;5059321;28;20082;-71
2023/12/23 03:04:47;;;;;;;0.20;0.20;;;9.80;99.90;;;;;;5061729;28;20090;-71
2023/12/23 03:07:12;;;;;;;0.35;0.30;;;9.90;99.90;;;;;;5055295;28;20036;-71
2023/12/23 03:09:38;;;;;;;1.85;0.65;;;10.00;99.90;;;;;;5056528;28;20036;-71
2023/12/23 03:12:04;;;;;;;1.58;0.40;;;10.00;99.90;;;;;;5056692;28;20077;-71
2023/12/23 03:14:29;;;;;;;0.20;0.20;;;9.90;99.90;;;;;;5055233;28;20028;-71
2023/12/23 03:16:55;;;;;;;3.20;0.20;;;9.90;99.90;;;;;;5056201;28;20032;-71
2023/12/23 03:19:21;;;;;;;0.10;0.10;;;9.90;99.90;;;;;;5058268;28;20517;-71
2023/12/23 03:21:48;;;;;;;2.22;0.30;;;9.90;99.90;;;;;;5054186;28;20037;-71
2023/12/23 03:24:13;;;;;;;0.73;0.73;;;9.90;99.90;;;;;;5061546;28;20036;-69
2023/12/23 03:26:39;;;;;;;0.70;0.28;;;9.80;99.90;;;;;;5061523;28;20032;-71
2023/12/23 03:29:05;;;;;;;0.57;0.32;;;9.80;99.90;;;;;;5060599;28;20515;-71
2023/12/23 03:31:32;;;;;;;0.90;0.30;;;9.80;99.90;;;;;;5066826;28;20111;-69
2023/12/23 03:33:59;;;;;;;3.10;0.90;;;9.80;99.90;;;;;;5065333;28;20024;-71
2023/12/23 03:36:25;;;;;;;0.47;0.20;;;9.80;99.90;;;;;;5066675;28;20033;-71
2023/12/23 03:38:51;;;;;;;0.85;0.40;;;9.80;99.90;;;;;;5064329;28;20029;-70
2023/12/23 03:41:16;;;;;;;0.52;0.52;;;9.80;99.90;;;;;;5055401;28;20043;-72
2023/12/23 03:43:42;;;;;;;0.20;0.20;;;9.80;99.90;;;;;;5060911;28;20044;-72
2023/12/23 03:46:08;;;;;;;9.85;0.68;;;9.80;99.90;;;;;;5064172;28;20458;-71
2023/12/23 03:48:33;;;;;;;0.10;0.10;;;9.90;99.90;;;;;;5057617;28;20028;-71
2023/12/23 03:50:59;;;;;;;2.20;0.40;;;10.10;99.90;;;;;;5061163;28;20139;-72
2023/12/23 03:53:24;;;;;;;8.20;0.50;;;10.10;99.90;;;;;;5062800;28;20066;-72
2023/12/23 03:55:50;;;;;;;6.88;0.38;;;10.10;99.90;;;;;;5058545;28;20407;-71
2023/12/23 03:58:16;;;;;;;1.88;0.63;;;10.20;99.90;;;;;;5064510;28;20040;-72
2023/12/23 04:00:41;;;;;;;1.55;0.28;;;10.30;99.90;;;;;;5058978;28;20032;-71
2023/12/23 04:03:07;;;;;;;5.18;0.40;;;10.30;99.90;;;;;;5059760;28;20035;-71
2023/12/23 04:05:32;;;;;;;3.05;0.73;;;10.30;99.90;;;;;;5066817;28;20466;-71
2023/12/23 04:07:58;;;;;;;0.55;0.50;;;10.30;99.90;;;;;;5053416;28;20481;-71
2023/12/23 04:10:24;;;;;;;0.10;0.10;;;10.30;99.90;;;;;;5062611;28;20123;-70
2023/12/23 04:12:50;;;;;;;1.05;0.93;;;10.30;99.90;;;;;;5057664;28;20041;-71
2023/12/23 04:15:16;;;;;;;3.33;0.40;;;10.30;99.90;;;;;;5054275;28;20111;-71
2023/12/23 04:17:42;;;;;;;0.10;0.10;;;10.30;99.90;;;;;;5058000;28;20089;-71
2023/12/23 04:20:08;;;;;;;7.43;0.90;;;10.20;99.90;;;;;;5061891;28;20032;-71
2023/12/23 04:22:34;;;;;;;0.13;0.10;;;10.20;99.90;;;;;;5069442;28;20055;-70
2023/12/23 04:25:00;;;;;;;1.63;0.57;;;10.30;99.90;;;;;;5091491;28;20040;-71
2023/12/23 04:27:26;;;;;;;1.73;0.70;;;10.30;99.90;;;;;;5059780;28;20035;-71
2023/12/23 04:29:51;;;;;;;1.80;0.20;;;10.30;99.90;;;;;;5062933;28;20043;-72
2023/12/23 04:32:17;;;;;;;3.90;0.68;;;10.30;99.90;;;;;;5060115;28;20492;-71
2023/12/23 04:34:43;;;;;;;0.17;0.17;;;10.40;99.90;;;;;;5064237;28;20528;-71
2023/12/23 04:37:08;;;;;;;0.10;0.10;;;10.40;99.90;;;;;;5064580;28;21143;-70
2023/12/23 04:39:34;;;;;;;0.65;0.30;;;10.40;99.90;;;;;;5063129;28;20468;-71
2023/12/23 04:41:59;;;;;;;0.30;0.20;;;10.40;99.90;;;;;;5057314;28;20032;-71
2023/12/23 04:44:27;;;;;;;1.88;0.30;;;10.40;99.90;;;;;;5064306;28;20040;-71
2023/12/23 04:46:53;;;;;;;1.35;0.65;;;10.40;99.90;;;;;;5058746;28;20025;-71
2023/12/23 04:49:19;;;;;;;0.85;0.50;;;10.40;99.90;;;;;;5058391;28;20025;-71
2023/12/23 04:51:45;;;;;;;2.75;0.30;;;10.40;99.90;;;;;;5059441;28;20089;-71
2023/12/23 04:54:12;;;;;;;1.48;0.43;;;10.40;99.90;;;;;;5058918;28;20122;-72
2023/12/23 04:56:38;;;;;;;1.10;0.70;;;10.40;99.90;;;;;;5061609;28;20028;-70
2023/12/23 04:59:03;;;;;;;0.73;0.30;;;10.40;99.90;;;;;;5068597;28;20039;-71
2023/12/23 05:01:29;;;;;;;4.82;0.75;;;10.40;99.90;;;;;;5058566;28;20780;-71
2023/12/23 05:03:55;;;;;;;9.55;0.40;;;10.40;99.90;;;;;;5066104;28;20028;-72
2023/12/23 05:06:21;;;;;;;2.80;0.90;;;10.40;99.90;;;;;;5066735;28;20036;-70
2023/12/23 05:08:47;;;;;;;0.10;0.10;;;10.40;99.90;;;;;;5060139;28;20434;-71
2023/12/23 05:11:13;;;;;;;0.60;0.10;;;10.40;99.90;;;;;;5060422;28;20020;-71
2023/12/23 05:13:38;;;;;;;1.75;0.82;;;10.40;99.90;;;;;;5066180;28;20078;-71
2023/12/23 05:16:04;;;;;;;0.13;0.10;;;10.40;99.90;;;;;;5055715;28;20040;-71
2023/12/23 05:18:30;;;;;;;1.65;0.57;;;10.40;99.90;;;;;;5059724;28;20067;-70
2023/12/23 05:20:56;;;;;;;7.47;1.27;;;10.40;99.90;;;;;;5055304;28;20174;-71
2023/12/23 05:23:21;;;;;;;2.45;0.52;;;10.40;99.90;;;;;;5058278;28;20024;-71
2023/12/23 05:25:47;;;;;;;2.72;0.50;;;10.40;99.90;;;;;;5062318;28;20119;-71
2023/12/23 05:28:12;;;;;;;1.60;1.05;;;10.40;99.90;;;;;;5060619;28;20116;-71
2023/12/23 05:30:38;;;;;;;0.73;0.22;;;10.40;99.90;;;;;;5061638;28;20036;-71
2023/12/23 05:33:04;;;;;;;0.10;0.10;;;10.40;99.90;;;;;;5064783;28;20099;-71
2023/12/23 05:35:30;;;;;;;1.40;0.52;;;10.40;99.90;;;;;;5059489;28;20078;-72
2023/12/23 05:37:55;;;;;;;4.88;0.50;;;10.40;99.90;;;;;;5062544;28;20032;-71
2023/12/23 05:40:21;;;;;;;1.23;0.28;;;10.40;99.90;;;;;;5060795;28;20443;-72
2023/12/23 05:42:47;;;;;;;2.97;0.68;;;10.40;99.90;;;;;;5054466;28;20068;-71
2023/12/23 05:45:14;;;;;;;2.40;0.35;;;10.50;99.90;;;;;;5063908;28;20470;-70
2023/12/23 05:47:40;;;;;;;6.50;2.13;;;10.50;99.90;;;;;;5058199;28;20021;-72
2023/12/23 05:50:06;;;;;;;1.02;0.15;;;10.50;99.90;;;;;;5056066;28;20399;-71
2023/12/23 05:52:32;;;;;;;2.78;0.30;;;10.50;99.90;;;;;;5059750;28;20028;-71
2023/12/23 05:54:57;;;;;;;1.55;0.60;;;10.50;99.90;;;;;;5056844;28;20047;-71
2023/12/23 05:57:23;;;;;;;1.00;0.28;;;10.50;99.90;;;;;;5061511;28;20032;-72
2023/12/23 05:59:49;;;;;;;0.28;0.20;;;10.50;99.90;;;;;;5064993;28;20081;-71
2023/12/23 06:02:14;;;;;;;8.10;1.02;;;10.50;99.90;;;;;;5058219;28;20146;-71
2023/12/23 06:04:40;;;;;;;3.40;0.55;;;10.50;99.90;;;;;;5061387;28;20060;-72
2023/12/23 06:07:05;;;;;;;6.43;0.45;;;10.50;99.90;;;;;;5062077;28;20111;-71
2023/12/23 06:09:31;;;;;;;7.38;0.22;;;10.60;99.90;;;;;;5059933;28;20108;-71
2023/12/23 06:11:57;;;;;;;8.65;0.60;;;10.50;99.90;;;;;;5061517;28;20032;-72
2023/12/23 06:14:22;;;;;;;1.98;0.30;;;10.50;99.90;;;;;;5059476;28;20044;-71
2023/12/23 06:16:48;;;;;;;2.65;0.40;;;10.50;99.90;;;;;;5061567;28;20382;-70
2023/12/23 06:19:14;;;;;;;4.28;0.40;;;10.60;99.90;;;;;;5062395;28;20456;-71
2023/12/23 06:21:45;;;;;;;4.22;0.82;;;10.60;99.90;;;;;;5054492;28;20032;-72
2023/12/23 06:24:11;;;;;;;3.13;0.95;;;10.60;99.90;;;;;;5060936;28;20441;-72
2023/12/23 06:26:37;;;;;;;2.28;0.35;;;10.60;99.90;;;;;;5059631;28;20040;-70
2023/12/23 06:29:03;;;;;;;4.63;0.57;;;10.60;99.90;;;;;;5057887;28;20091;-71
2023/12/23 06:31:28;;;;;;;0.77;0.77;;;10.50;99.90;;;;;;5063378;28;20050;-71
2023/12/23 06:33:54;;;;;;;5.55;0.52;;;10.60;99.90;;;;;;5065557;28;20063;-71
2023/12/23 06:36:20;;;;;;;0.20;0.20;;;10.60;99.90;;;;;;5059449;28;20194;-71
2023/12/23 06:38:45;;;;;;;2.08;1.25;;;10.60;99.90;;;;;;5064163;28;20476;-71
2023/12/23 06:41:12;;;;;;;1.23;0.30;;;10.50;99.90;;;;;;5059984;28;20319;-71
2023/12/23 06:43:38;;;;;;;0.13;0.08;;;10.60;99.90;;;;;;5057893;28;20035;-71
2023/12/23 06:46:04;;;;;;;1.73;0.30;;;10.60;99.90;;;;;;5061058;28;20480;-71
2023/12/23 06:48:30;;;;;;;4.75;0.65;;;10.50;99.90;;;;;;5056769;28;20507;-70
2023/12/23 06:50:55;;;;;;;9.00;0.50;;;10.60;99.90;;;;;;5057534;28;20052;-70
2023/12/23 06:53:21;;;;;;;1.48;0.50;;;10.50;99.90;;;;;;5062002;28;20028;-71
2023/12/23 06:55:46;;;;;;;1.25;0.65;;;10.50;99.90;;;;;;5052356;28;20039;-72
2023/12/23 06:58:12;;;;;;;0.13;0.13;;;10.50;99.90;;;;;;5060040;28;20047;-71
2023/12/23 07:00:38;;;;;;;0.95;0.43;;;10.50;99.90;;;;;;5063575;28;20042;-71
2023/12/23 07:03:06;;;;;;;2.28;0.20;;;10.40;99.90;;;;;;5062793;28;20032;-71
2023/12/23 07:05:31;;;;;;;3.30;1.20;;;10.30;99.90;;;;;;5078669;28;20016;-71
2023/12/23 07:07:57;;;;;;;4.28;0.20;;;10.20;99.90;;;;;;5090505;28;20055;-71
2023/12/23 07:10:23;;;;;;;0.20;0.20;;;10.10;99.90;;;;;;5062828;28;20240;-72
2023/12/23 07:12:49;;;;;;;0.38;0.20;;;10.00;99.90;;;;;;5068360;28;20085;-70
2023/12/23 07:15:14;;;;;;;1.08;0.50;;;9.80;99.90;;;;;;5062018;28;20028;-71
2023/12/23 07:17:40;;;;;;;1.65;0.47;;;9.60;99.90;;;;;;5061741;28;20124;-71
2023/12/23 07:20:08;;;;;;;3.00;0.80;;;9.60;99.90;;;;;;5064836;28;20046;-72
2023/12/23 07:22:33;;;;;;;1.13;0.22;;;9.60;99.90;;;;;;5060693;28;20036;-71
2023/12/23 07:24:59;;;;;;;0.28;0.20;;;9.50;99.90;;;;;;5065200;28;20031;-70
2023/12/23 07:27:25;;;;;;;0.10;0.10;;;9.60;99.90;;;;;;5064689;28;20036;-72
2023/12/23 07:29:52;;;;;;;11.18;0.77;;;9.60;99.90;;;;;;5057914;28;20108;-72
2023/12/23 07:32:18;;;;;;;0.32;0.30;;;9.70;99.90;;;;;;5064751;28;20377;-72
2023/12/23 07:34:44;;;;;;;1.85;0.90;;;9.70;99.90;;;;;;5063351;28;20047;-71
2023/12/23 07:37:10;;;;;;;0.03;0.03;;;9.80;99.90;;;;;;5062134;28;20036;-71
2023/12/23 07:39:35;;;;;;;0.80;0.20;;;9.80;99.90;;;;;;5064758;28;20033;-71
2023/12/23 07:42:01;;;;;;;0.75;0.40;;;9.90;99.90;;;;;;5058821;28;20613;-72
2023/12/23 07:44:27;;;;;;;1.52;0.40;;;9.90;99.90;;;;;;5064382;28;20082;-70
2023/12/23 07:46:52;;;;;;;0.30;0.30;;;10.00;99.90;;;;;;5063368;28;20028;-71
2023/12/23 07:49:18;;;;;;;4.13;0.50;;;10.10;99.90;;;;;;5056960;28;20028;-71
2023/12/23 07:51:44;;;;;;;1.50;0.30;;;10.10;99.90;;;;;;5064622;28;20203;-71
2023/12/23 07:54:10;;;;;;;1.33;0.30;;;10.20;99.90;;;;;;5067261;28;20484;-72
2023/12/23 07:56:36;;;;;;;3.85;0.52;;;10.20;99.90;;;;;;5058065;28;20061;-70
2023/12/23 07:59:02;;;;;;;0.13;0.13;;;10.20;99.90;;;;;;5062899;28;20231;-71
2023/12/23 08:01:27;;;;;;;0.10;0.10;;;10.20;99.90;;;;;;5062937;28;20417;-70
2023/12/23 08:03:55;;;;;;;0.55;0.47;;;10.30;99.90;;;;;;5060144;28;20024;-71
2023/12/23 08:06:22;;;;;;;0.22;0.22;;;10.30;99.90;;;;;;5061278;28;20021;-71
2023/12/23 08:08:48;;;;;;;0.85;0.30;;;10.40;99.90;;;;;;5061876;28;20073;-71
2023/12/23 08:11:14;;;;;;;1.13;0.15;;;10.50;99.90;;;;;;5061221;28;20033;-70
2023/12/23 08:13:41;;;;;;;2.05;0.30;;;10.50;99.90;;;;;;5065193;28;20032;-71
2023/12/23 08:16:07;;;;;;;2.92;0.60;;;10.50;99.90;;;;;;5054714;28;20032;-71
2023/12/23 08:18:33;;;;;;;0.57;0.13;;;10.60;99.90;;;;;;5064975;28;20029;-71
2023/12/23 08:20:58;;;;;;;1.00;0.28;;;10.60;99.90;;;;;;5058154;28;20430;-72
2023/12/23 08:23:24;;;;;;;2.30;0.30;;;10.60;99.90;;;;;;5059814;28;20025;-71
2023/12/23 08:25:50;;;;;;;1.60;0.43;;;10.70;99.90;;;;;;5063558;28;21157;-71
2023/12/23 08:28:16;;;;;;;0.82;0.30;;;10.70;99.90;;;;;;5058246;28;20115;-70
2023/12/23 08:30:41;;;;;;;0.30;0.20;;;10.80;99.90;;;;;;5059857;28;20029;-71
2023/12/23 08:33:07;;;;;;;8.63;0.30;;;10.80;99.90;;;;;;5063335;28;20523;-72
2023/12/23 08:35:33;;;;;;;5.75;0.60;;;10.80;99.90;;;;;;5061087;28;20081;-71
2023/12/23 08:37:59;;;;;;;2.70;0.30;;;10.90;99.90;;;;;;5064391;28;20028;-70
2023/12/23 08:40:25;;;;;;;3.75;0.57;;;11.00;99.90;;;;;;5063702;28;20115;-71
2023/12/23 08:42:51;;;;;;;1.45;0.65;;;11.00;99.90;;;;;;5056669;28;20162;-72
2023/12/23 08:45:17;;;;;;;3.25;0.20;;;11.00;99.90;;;;;;5046713;28;20037;-71
2023/12/23 08:47:43;;;;;;;0.68;0.20;;;11.10;99.90;;;;;;5062238;28;20029;-71
2023/12/23 08:50:09;;;;;;;1.23;0.30;;;11.10;99.90;;;;;;5054992;28;20520;-71
2023/12/23 08:52:34;;;;;;;3.20;0.22;;;11.10;99.90;;;;;;5063405;28;20115;-70
2023/12/23 08:55:01;;;;;;;5.47;0.47;;;11.20;99.90;;;;;;5060392;28;20469;-72
2023/12/23 08:57:27;;;;;;;1.38;0.30;;;11.20;99.90;;;;;;5060365;28;20036;-71
2023/12/23 08:59:53;;;;;;;0.10;0.10;;;11.30;99.90;;;;;;5065243;28;20039;-72
2023/12/23 09:02:18;;;;;;;0.95;0.52;;;11.30;99.90;;;;;;5057942;28;20068;-70
2023/12/23 09:04:44;;;;;;;2.22;0.40;;;11.40;99.90;;;;;;5060789;28;20182;-71
2023/12/23 09:07:10;;;;;;;0.73;0.32;;;11.50;99.90;;;;;;5061334;28;20112;-71
2023/12/23 09:09:35;;;;;;;3.30;0.43;;;11.50;99.90;;;;;;5060616;28;20028;-71
2023/12/23 09:12:01;;;;;;;0.10;0.10;;;11.60;99.90;;;;;;5059769;28;20036;-71
2023/12/23 09:14:27;;;;;;;0.20;0.20;;;11.60;99.90;;;;;;5062015;28;20453;-71
2023/12/23 09:16:53;;;;;;;1.25;0.20;;;11.60;99.90;;;;;;5054052;28;20438;-72
2023/12/23 09:19:18;;;;;;;1.02;0.25;;;11.60;99.90;;;;;;5063460;28;20040;-71
2023/12/23 09:21:44;;;;;;;0.20;0.20;;;11.70;99.90;;;;;;5060569;28;20039;-72
2023/12/23 09:24:09;;;;;;;0.35;0.35;;;11.60;99.90;;;;;;5057797;28;20113;-71
2023/12/23 09:26:35;;;;;;;0.43;0.10;;;11.60;99.90;;;;;;5062439;28;20817;-71
2023/12/23 09:29:01;;;;;;;0.95;0.45;;;11.60;99.90;;;;;;5059048;28;20932;-71
2023/12/23 09:31:27;;;;;;;0.17;0.17;;;11.70;99.90;;;;;;5058849;28;20020;-71
2023/12/23 09:33:52;;;;;;;0.35;0.10;;;11.70;99.90;;;;;;5061176;28;20036;-71
2023/12/23 09:36:18;;;;;;;5.40;0.30;;;11.80;99.90;;;;;;5053380;28;20404;-71
2023/12/23 09:38:44;;;;;;;0.25;0.25;;;11.90;99.90;;;;;;5061706;28;20039;-71
2023/12/23 09:41:09;;;;;;;0.45;0.40;;;11.90;99.90;;;;;;5058926;28;20033;-71
2023/12/23 09:43:35;;;;;;;2.30;0.10;;;11.90;99.90;;;;;;5061121;28;20361;-71
2023/12/23 09:46:03;;;;;;;0.03;0.03;;;12.00;99.90;;;;;;5062408;28;20051;-73
2023/12/23 09:48:29;;;;;;;0.10;0.10;;;12.00;99.90;;;;;;5074581;28;20023;-70
2023/12/23 09:50:55;;;;;;;0.20;0.20;;;12.00;99.90;;;;;;5079049;28;20063;-70
2023/12/23 09:53:22;;;;;;;1.92;0.25;;;12.00;99.90;;;;;;5047027;28;20405;-71
2023/12/23 09:55:48;;;;;;;0.00;0.00;;;12.10;99.90;;;;;;5057140;28;20047;-71
2023/12/23 09:58:14;;;;;;;0.00;0.00;;;11.90;99.90;;;;;;5059712;28;21242;-71
2023/12/23 10:00:40;;;;;;;0.43;0.32;;;12.00;99.90;;;;;;5063197;28;20560;-71
2023/12/23 10:03:06;;;;;;;3.92;0.47;;;12.00;99.90;;;;;;5050759;28;20064;-71
2023/12/23 10:05:34;;;;;;;0.20;0.15;;;12.00;99.90;;;;;;5052869;28;20658;-71
2023/12/23 10:08:00;;;;;;;0.17;0.10;;;12.00;99.90;;;;;;5058854;28;20040;-71
2023/12/23 10:10:26;;;;;;;0.17;0.17;;;12.00;99.90;;;;;;5056071;28;20036;-71
2023/12/23 10:12:52;;;;;;;0.10;0.10;;;12.00;99.90;;;;;;5055871;28;20115;-72
2023/12/23 10:15:18;;;;;;;0.10;0.10;;;12.10;99.90;;;;;;5056447;28;20879;-71
2023/12/23 10:17:44;;;;;;;0.00;0.00;;;12.10;99.90;;;;;;5052058;28;20036;-71
2023/12/23 10:20:12;;;;;;;0.10;0.10;;;12.20;99.90;;;;;;5058873;28;20380;-70
2023/12/23 10:22:41;;;;;;;0.10;0.10;;;12.20;99.40;;;;;;5059256;28;20543;-71
2023/12/23 10:25:07;;;;;;;0.10;0.10;;;12.30;99.20;;;;;;5061786;28;20086;-71
2023/12/23 10:27:34;;;;;;;0.75;0.30;;;12.30;99.60;;;;;;5061331;28;20430;-71
2023/12/23 10:30:07;;;;;;;4.50;0.20;;;12.40;99.20;;;;;;5057237;28;20124;-70
2023/12/23 10:32:36;;;;;;;0.10;0.10;;;12.40;98.90;;;;;;5063217;28;20028;-70
2023/12/23 10:35:05;;;;;;;0.10;0.10;;;12.50;98.50;;;;;;5062771;28;20082;-71
2023/12/23 10:37:34;;;;;;;0.10;0.10;;;12.50;97.90;;;;;;5055945;28;20515;-71
2023/12/23 10:40:11;;;;;;;0.10;0.10;;;12.60;97.90;;;;;;5066295;28;20481;-71
2023/12/23 10:42:39;;;;;;;0.10;0.10;;;12.60;97.50;;;;;;5062662;28;20051;-71
2023/12/23 10:45:07;;;;;;;0.30;0.17;;;12.50;97.30;;;;;;5061194;28;20040;-70
2023/12/23 10:47:34;;;;;;;0.10;0.10;;;12.50;97.40;;;;;;5061887;28;20067;-70
2023/12/23 10:50:00;;;;;;;0.15;0.15;;;12.50;97.30;;;;;;5059728;28;20016;-70
2023/12/23 10:52:26;;;;;;;1.48;0.20;;;12.40;97.50;;;;;;5064861;28;20485;-71
2023/12/23 10:54:52;;;;;;;1.17;0.20;;;12.40;97.40;;;;;;5067725;28;20035;-70
2023/12/23 10:57:21;;;;;;;0.20;0.20;;;12.40;97.40;;;;;;5061652;28;20032;-72
2023/12/23 10:59:47;;;;;;;0.20;0.20;;;12.40;97.50;;;;;;5063492;28;20071;-72
2023/12/23 11:02:15;;;;;;;0.65;0.20;;;12.40;97.00;;;;;;5069182;28;20131;-71
2023/12/23 11:04:47;;;;;;;1.77;0.63;;;12.50;96.70;;;;;;5062225;28;20055;-72
2023/12/23 11:07:14;;;;;;;0.20;0.20;;;12.50;96.60;;;;;;5063237;28;20413;-71
2023/12/23 11:09:43;;;;;;;1.25;0.30;;;12.50;96.30;;;;;;5063837;28;20028;-70
2023/12/23 11:12:09;;;;;;;4.20;0.20;;;12.80;99.90;;;;;;5063801;28;20043;-70
2023/12/23 11:14:36;;;;;;;0.30;0.20;;;12.50;96.10;;;;;;5066179;28;20679;-71
2023/12/23 11:17:05;;;;;;;0.30;0.20;;;12.60;95.90;;;;;;5059436;28;20710;-70
2023/12/23 11:19:31;;;;;;;0.30;0.20;;;12.60;95.90;;;;;;5063594;28;20115;-71
2023/12/23 11:22:21;;;;;;;0.10;0.10;;;12.70;99.90;;;;;;5065099;28;20120;-70
2023/12/23 11:24:47;;;;;;;0.10;0.10;;;12.70;95.20;;;;;;5062507;28;20029;-71
2023/12/23 11:27:33;;;;;;;1.75;0.50;;;12.70;95.70;;;;;;5066746;28;20492;-72
2023/12/23 11:30:08;;;;;;;0.88;0.20;;;12.70;95.30;;;;;;5059298;28;20032;-72
2023/12/23 11:32:37;;;;;;;0.20;0.20;;;12.80;95.20;;;;;;5067371;28;20119;-70
2023/12/23 11:35:04;;;;;;;1.38;0.10;;;12.70;94.80;;;;;;5065876;28;20032;-70
2023/12/23 11:37:51;;;;;;;0.10;0.10;;;12.70;94.80;;;;;;5061103;28;20104;-70
2023/12/23 11:40:17;;;;;;;3.05;0.47;;;12.60;95.00;;;;;;5063136;28;20036;-71
2023/12/23 11:42:43;;;;;;;0.45;0.20;;;12.60;95.20;;;;;;5064545;28;20533;-71
2023/12/23 11:45:11;;;;;;;0.22;0.20;;;12.50;95.40;;;;;;5061689;28;20047;-72
2023/12/23 11:47:37;;;;;;;0.30;0.20;;;12.70;95.30;;;;;;5062999;28;20059;-71
2023/12/23 11:50:02;;;;;;;1.35;0.50;;;12.70;95.00;;;;;;5054225;28;20761;-72
2023/12/23 11:52:28;;;;;;;5.82;0.63;;;12.60;95.20;;;;;;5062280;28;20020;-71
2023/12/23 11:54:54;;;;;;;0.13;0.13;;;12.70;95.30;;;;;;5066135;28;20033;-71
2023/12/23 11:57:20;;;;;;;0.10;0.10;;;12.80;99.90;;;;;;5059760;28;20094;-71
2023/12/23 11:59:47;;;;;;;1.60;0.45;;;12.90;95.10;;;;;;5061626;28;20139;-70
2023/12/23 12:02:14;;;;;;;0.63;0.43;;;12.80;95.30;;;;;;5064765;28;20033;-71
2023/12/23 12:04:39;;;;;;;0.30;0.30;;;12.80;95.30;;;;;;5060166;28;20017;-70
2023/12/23 12:07:05;;;;;;;3.72;0.45;;;12.70;95.60;;;;;;5063875;28;20469;-71
2023/12/23 12:09:31;;;;;;;0.10;0.10;;;12.80;95.10;;;;;;5061553;28;20028;-71
2023/12/23 12:11:58;;;;;;;0.15;0.15;;;12.80;94.80;;;;;;5060662;28;20032;-70
2023/12/23 12:14:26;;;;;;;1.52;0.20;;;12.80;94.90;;;;;;5063747;28;20120;-71
2023/12/23 12:16:51;;;;;;;0.10;0.10;;;12.70;94.90;;;;;;5059052;28;20033;-72
2023/12/23 12:19:17;;;;;;;0.40;0.20;;;12.80;95.20;;;;;;5058780;28;20297;-71
2023/12/23 12:21:43;;;;;;;0.10;0.10;;;12.80;95.20;;;;;;5061724;28;20040;-70
2023/12/23 12:24:09;;;;;;;0.40;0.10;;;13.00;99.90;;;;;;5058765;28;20028;-71
2023/12/23 12:26:34;;;;;;;0.30;0.08;;;13.00;99.90;;;;;;5065619;28;20134;-70
2023/12/23 12:29:00;;;;;;;0.10;0.10;;;13.10;99.90;;;;;;5064836;28;20037;-70
2023/12/23 12:31:26;;;;;;;2.17;0.30;;;13.10;99.90;;;;;;5067083;28;20031;-70
2023/12/23 12:33:52;;;;;;;3.30;0.30;;;13.10;94.60;;;;;;5090985;28;20032;-70
2023/12/23 12:36:20;;;;;;;0.63;0.10;;;13.40;94.70;;;;;;5062724;28;21511;-70
2023/12/23 12:38:46;;;;;;;0.55;0.30;;;13.60;94.00;;;;;;5062850;28;20055;-71
2023/12/23 12:41:12;;;;;;;0.10;0.10;;;13.70;93.80;;;;;;5066744;28;20096;-71
2023/12/23 12:43:40;;;;;;;0.35;0.20;;;13.50;93.70;;;;;;5061911;28;20033;-72
2023/12/23 12:46:06;;;;;;;0.25;0.25;;;13.50;94.30;;;;;;5057022;28;20266;-71
2023/12/23 12:48:32;;;;;;;0.10;0.10;;;13.60;94.20;;;;;;5062497;28;20032;-71